Terminal Aerodrome Forecast
Issued by NWS

Home | Current Version | Previous Version | Text Only | Print | Product List | Glossary On
Versions: 1 2 3 4 5 6 7 8 9 10 11 12 13 14 15 16 17 18 19 20 21 22 23 24 25
000
FTUS42 KFFC 081121
TAFPDK
TAF
KPDK 081121Z 0812/0912 32008KT P6SM FEW025 BKN120
     FM081400 33010G18KT P6SM FEW035 BKN080
     FM081700 33012G22KT P6SM FEW050 BKN120
     FM082300 33010KT P6SM SCT150 BKN250
     FM090300 34007KT P6SM SCT250=

USA.gov is the U.S. government's official web portal to all federal, state and local government web resources and services.